sensor_id;sensor_type;location;lat;lon;timestamp;temperature;humidity
21459;DHT22;10891;49.350;19.386;2023-05-24T00:00:11;14.40;99.90
21459;DHT22;10891;49.350;19.386;2023-05-24T00:02:40;14.40;99.90
21459;DHT22;10891;49.350;19.386;2023-05-24T00:05:07;14.50;99.90
21459;DHT22;10891;49.350;19.386;2023-05-24T00:07:35;14.50;99.90
21459;DHT22;10891;49.350;19.386;2023-05-24T00:10:02;14.50;99.90
21459;DHT22;10891;49.350;19.386;2023-05-24T00:12:29;14.50;99.90
21459;DHT22;10891;49.350;19.386;2023-05-24T00:14:56;14.50;99.90
21459;DHT22;10891;49.350;19.386;2023-05-24T00:17:24;14.40;99.90
21459;DHT22;10891;49.350;19.386;2023-05-24T00:19:52;14.40;99.90
21459;DHT22;10891;49.350;19.386;2023-05-24T00:22:19;14.30;99.90
21459;DHT22;10891;49.350;19.386;2023-05-24T00:24:46;14.30;99.90
21459;DHT22;10891;49.350;19.386;2023-05-24T00:27:13;14.30;99.90
21459;DHT22;10891;49.350;19.386;2023-05-24T00:29:40;14.30;99.90
21459;DHT22;10891;49.350;19.386;2023-05-24T00:32:07;14.30;99.90
21459;DHT22;10891;49.350;19.386;2023-05-24T00:34:35;14.20;99.90
21459;DHT22;10891;49.350;19.386;2023-05-24T00:37:02;14.10;99.90
21459;DHT22;10891;49.350;19.386;2023-05-24T00:39:29;14.10;99.90
21459;DHT22;10891;49.350;19.386;2023-05-24T00:41:56;14.10;99.90
21459;DHT22;10891;49.350;19.386;2023-05-24T00:44:22;14.10;99.90
21459;DHT22;10891;49.350;19.386;2023-05-24T00:46:49;14.10;99.90
21459;DHT22;10891;49.350;19.386;2023-05-24T00:49:16;14.10;99.90
21459;DHT22;10891;49.350;19.386;2023-05-24T00:51:45;14.20;99.90
21459;DHT22;10891;49.350;19.386;2023-05-24T00:54:13;14.20;99.90
21459;DHT22;10891;49.350;19.386;2023-05-24T00:56:41;14.20;99.90
21459;DHT22;10891;49.350;19.386;2023-05-24T00:59:08;14.10;99.90
21459;DHT22;10891;49.350;19.386;2023-05-24T01:01:35;14.10;99.90
21459;DHT22;10891;49.350;19.386;2023-05-24T01:04:02;14.10;99.90
21459;DHT22;10891;49.350;19.386;2023-05-24T01:06:32;14.10;99.90
21459;DHT22;10891;49.350;19.386;2023-05-24T01:09:16;14.00;99.90
21459;DHT22;10891;49.350;19.386;2023-05-24T01:11:52;13.90;99.90
21459;DHT22;10891;49.350;19.386;2023-05-24T01:14:28;14.00;99.90
21459;DHT22;10891;49.350;19.386;2023-05-24T01:17:03;14.00;99.90
21459;DHT22;10891;49.350;19.386;2023-05-24T01:19:48;14.00;99.90
21459;DHT22;10891;49.350;19.386;2023-05-24T01:22:37;14.00;99.90
21459;DHT22;10891;49.350;19.386;2023-05-24T01:25:11;14.10;99.90
21459;DHT22;10891;49.350;19.386;2023-05-24T01:27:41;14.10;99.90
21459;DHT22;10891;49.350;19.386;2023-05-24T01:30:09;14.00;99.90
21459;DHT22;10891;49.350;19.386;2023-05-24T01:32:36;14.00;99.90
21459;DHT22;10891;49.350;19.386;2023-05-24T01:35:04;14.00;99.90
21459;DHT22;10891;49.350;19.386;2023-05-24T01:37:31;14.00;99.90
21459;DHT22;10891;49.350;19.386;2023-05-24T01:39:58;14.00;99.90
21459;DHT22;10891;49.350;19.386;2023-05-24T01:42:29;14.10;99.90
21459;DHT22;10891;49.350;19.386;2023-05-24T01:45:06;14.10;99.90
21459;DHT22;10891;49.350;19.386;2023-05-24T01:47:43;14.10;99.90
21459;DHT22;10891;49.350;19.386;2023-05-24T01:50:17;14.20;99.90
21459;DHT22;10891;49.350;19.386;2023-05-24T01:52:46;14.10;99.90
21459;DHT22;10891;49.350;19.386;2023-05-24T01:55:17;14.10;99.90
21459;DHT22;10891;49.350;19.386;2023-05-24T01:57:45;14.20;99.90
21459;DHT22;10891;49.350;19.386;2023-05-24T02:00:17;14.20;99.90
21459;DHT22;10891;49.350;19.386;2023-05-24T02:02:44;14.20;99.90
21459;DHT22;10891;49.350;19.386;2023-05-24T02:05:12;14.10;99.90
21459;DHT22;10891;49.350;19.386;2023-05-24T02:07:38;14.20;99.90
21459;DHT22;10891;49.350;19.386;2023-05-24T02:10:07;14.10;99.90
21459;DHT22;10891;49.350;19.386;2023-05-24T02:12:35;14.20;99.90
21459;DHT22;10891;49.350;19.386;2023-05-24T02:15:01;14.20;99.90
21459;DHT22;10891;49.350;19.386;2023-05-24T02:17:30;14.10;99.90
21459;DHT22;10891;49.350;19.386;2023-05-24T02:19:57;14.10;99.90
21459;DHT22;10891;49.350;19.386;2023-05-24T02:22:24;14.10;99.90
21459;DHT22;10891;49.350;19.386;2023-05-24T02:24:51;14.10;99.90
21459;DHT22;10891;49.350;19.386;2023-05-24T02:27:19;14.10;99.90
21459;DHT22;10891;49.350;19.386;2023-05-24T02:29:45;14.20;99.90
21459;DHT22;10891;49.350;19.386;2023-05-24T02:32:13;14.20;99.90
21459;DHT22;10891;49.350;19.386;2023-05-24T02:34:41;14.30;99.90
21459;DHT22;10891;49.350;19.386;2023-05-24T02:37:08;14.20;99.90
21459;DHT22;10891;49.350;19.386;2023-05-24T02:39:39;14.20;99.90
21459;DHT22;10891;49.350;19.386;2023-05-24T02:42:06;14.20;99.90
21459;DHT22;10891;49.350;19.386;2023-05-24T02:44:33;14.20;99.90
21459;DHT22;10891;49.350;19.386;2023-05-24T02:47:00;14.10;99.90
21459;DHT22;10891;49.350;19.386;2023-05-24T02:49:27;14.10;99.90
21459;DHT22;10891;49.350;19.386;2023-05-24T02:51:56;14.10;99.90
21459;DHT22;10891;49.350;19.386;2023-05-24T02:54:25;14.10;99.90
21459;DHT22;10891;49.350;19.386;2023-05-24T02:56:52;14.10;99.90
21459;DHT22;10891;49.350;19.386;2023-05-24T02:59:21;14.10;99.90
21459;DHT22;10891;49.350;19.386;2023-05-24T03:01:48;14.00;99.90
21459;DHT22;10891;49.350;19.386;2023-05-24T03:04:15;14.00;99.90
21459;DHT22;10891;49.350;19.386;2023-05-24T03:06:42;14.00;99.90
21459;DHT22;10891;49.350;19.386;2023-05-24T03:09:10;14.10;99.90
21459;DHT22;10891;49.350;19.386;2023-05-24T03:11:37;14.10;99.90
21459;DHT22;10891;49.350;19.386;2023-05-24T03:14:04;14.20;99.90
21459;DHT22;10891;49.350;19.386;2023-05-24T03:16:34;14.20;99.90
21459;DHT22;10891;49.350;19.386;2023-05-24T03:19:01;14.20;99.90
21459;DHT22;10891;49.350;19.386;2023-05-24T03:21:28;14.20;99.90
21459;DHT22;10891;49.350;19.386;2023-05-24T03:23:56;14.20;99.90
21459;DHT22;10891;49.350;19.386;2023-05-24T03:26:25;14.20;99.90
21459;DHT22;10891;49.350;19.386;2023-05-24T03:28:52;14.20;99.90
21459;DHT22;10891;49.350;19.386;2023-05-24T03:31:21;14.10;99.90
21459;DHT22;10891;49.350;19.386;2023-05-24T03:33:49;14.20;99.90
21459;DHT22;10891;49.350;19.386;2023-05-24T03:36:16;14.20;99.90
21459;DHT22;10891;49.350;19.386;2023-05-24T03:38:43;14.30;99.90
21459;DHT22;10891;49.350;19.386;2023-05-24T03:41:10;14.30;99.90
21459;DHT22;10891;49.350;19.386;2023-05-24T03:43:38;14.30;99.90
21459;DHT22;10891;49.350;19.386;2023-05-24T03:46:05;14.40;99.90
21459;DHT22;10891;49.350;19.386;2023-05-24T03:48:32;14.40;99.90
21459;DHT22;10891;49.350;19.386;2023-05-24T03:50:59;14.30;99.90
21459;DHT22;10891;49.350;19.386;2023-05-24T03:53:27;14.30;99.90
21459;DHT22;10891;49.350;19.386;2023-05-24T03:55:54;14.20;99.90
21459;DHT22;10891;49.350;19.386;2023-05-24T03:58:21;14.10;99.90
21459;DHT22;10891;49.350;19.386;2023-05-24T04:00:49;14.10;99.90
21459;DHT22;10891;49.350;19.386;2023-05-24T04:03:16;14.10;99.90
21459;DHT22;10891;49.350;19.386;2023-05-24T04:05:44;14.10;99.90
21459;DHT22;10891;49.350;19.386;2023-05-24T04:08:11;14.10;99.90
21459;DHT22;10891;49.350;19.386;2023-05-24T04:10:39;14.10;99.90
21459;DHT22;10891;49.350;19.386;2023-05-24T04:13:07;14.10;99.90
21459;DHT22;10891;49.350;19.386;2023-05-24T04:15:34;14.10;99.90
21459;DHT22;10891;49.350;19.386;2023-05-24T04:18:03;14.10;99.90
21459;DHT22;10891;49.350;19.386;2023-05-24T04:20:30;14.20;99.90
21459;DHT22;10891;49.350;19.386;2023-05-24T04:22:57;14.10;99.90
21459;DHT22;10891;49.350;19.386;2023-05-24T04:25:25;14.20;99.90
21459;DHT22;10891;49.350;19.386;2023-05-24T04:27:52;14.20;99.90
21459;DHT22;10891;49.350;19.386;2023-05-24T04:30:20;14.30;99.90
21459;DHT22;10891;49.350;19.386;2023-05-24T04:32:47;14.30;99.90
21459;DHT22;10891;49.350;19.386;2023-05-24T04:35:16;14.40;99.90
21459;DHT22;10891;49.350;19.386;2023-05-24T04:37:44;14.30;99.90
21459;DHT22;10891;49.350;19.386;2023-05-24T04:40:13;14.30;99.90
21459;DHT22;10891;49.350;19.386;2023-05-24T04:42:41;14.40;99.90
21459;DHT22;10891;49.350;19.386;2023-05-24T04:45:09;14.50;99.90
21459;DHT22;10891;49.350;19.386;2023-05-24T04:47:36;14.50;99.90
21459;DHT22;10891;49.350;19.386;2023-05-24T04:50:04;14.60;99.90
21459;DHT22;10891;49.350;19.386;2023-05-24T04:52:35;14.60;99.90
21459;DHT22;10891;49.350;19.386;2023-05-24T04:55:05;14.60;99.90
21459;DHT22;10891;49.350;19.386;2023-05-24T04:57:38;14.50;99.90
21459;DHT22;10891;49.350;19.386;2023-05-24T05:00:10;14.40;99.90
21459;DHT22;10891;49.350;19.386;2023-05-24T05:02:38;14.50;99.90
21459;DHT22;10891;49.350;19.386;2023-05-24T05:05:06;14.60;99.90
21459;DHT22;10891;49.350;19.386;2023-05-24T05:07:35;14.60;99.90
21459;DHT22;10891;49.350;19.386;2023-05-24T05:10:03;14.50;99.90
21459;DHT22;10891;49.350;19.386;2023-05-24T05:12:30;14.50;99.90
21459;DHT22;10891;49.350;19.386;2023-05-24T05:14:57;14.40;99.90
21459;DHT22;10891;49.350;19.386;2023-05-24T05:17:24;14.20;99.90
21459;DHT22;10891;49.350;19.386;2023-05-24T05:19:50;14.30;99.90
21459;DHT22;10891;49.350;19.386;2023-05-24T05:22:17;14.40;99.90
21459;DHT22;10891;49.350;19.386;2023-05-24T05:24:45;14.40;99.90
21459;DHT22;10891;49.350;19.386;2023-05-24T05:27:12;14.30;99.90
21459;DHT22;10891;49.350;19.386;2023-05-24T05:29:39;14.20;99.90
21459;DHT22;10891;49.350;19.386;2023-05-24T05:32:06;14.20;99.90
21459;DHT22;10891;49.350;19.386;2023-05-24T05:34:33;14.20;99.90
21459;DHT22;10891;49.350;19.386;2023-05-24T05:37:00;14.20;99.90
21459;DHT22;10891;49.350;19.386;2023-05-24T05:39:27;14.10;99.90
21459;DHT22;10891;49.350;19.386;2023-05-24T05:41:57;14.10;99.90
21459;DHT22;10891;49.350;19.386;2023-05-24T05:44:24;14.30;99.90
21459;DHT22;10891;49.350;19.386;2023-05-24T05:46:51;14.30;99.90
21459;DHT22;10891;49.350;19.386;2023-05-24T05:49:18;14.40;99.90
21459;DHT22;10891;49.350;19.386;2023-05-24T05:51:45;14.50;99.90
21459;DHT22;10891;49.350;19.386;2023-05-24T05:54:12;14.80;99.90
21459;DHT22;10891;49.350;19.386;2023-05-24T05:56:43;14.80;99.90
21459;DHT22;10891;49.350;19.386;2023-05-24T05:59:14;15.00;99.90
21459;DHT22;10891;49.350;19.386;2023-05-24T06:01:41;15.20;99.90
21459;DHT22;10891;49.350;19.386;2023-05-24T06:04:08;15.30;99.90
21459;DHT22;10891;49.350;19.386;2023-05-24T06:06:35;15.40;99.90
21459;DHT22;10891;49.350;19.386;2023-05-24T06:09:02;15.30;99.90
21459;DHT22;10891;49.350;19.386;2023-05-24T06:11:29;15.20;99.90
21459;DHT22;10891;49.350;19.386;2023-05-24T06:13:56;15.30;99.90
21459;DHT22;10891;49.350;19.386;2023-05-24T06:16:24;15.40;99.90
21459;DHT22;10891;49.350;19.386;2023-05-24T06:18:52;15.60;99.90
21459;DHT22;10891;49.350;19.386;2023-05-24T06:21:18;15.80;99.90
21459;DHT22;10891;49.350;19.386;2023-05-24T06:23:46;15.90;99.90
21459;DHT22;10891;49.350;19.386;2023-05-24T06:26:12;16.00;99.90
21459;DHT22;10891;49.350;19.386;2023-05-24T06:28:39;16.10;99.90
21459;DHT22;10891;49.350;19.386;2023-05-24T06:31:06;16.20;99.90
21459;DHT22;10891;49.350;19.386;2023-05-24T06:33:34;16.20;99.90
21459;DHT22;10891;49.350;19.386;2023-05-24T06:36:01;16.10;99.90
21459;DHT22;10891;49.350;19.386;2023-05-24T06:38:28;15.90;99.90
21459;DHT22;10891;49.350;19.386;2023-05-24T06:40:57;15.90;99.90
21459;DHT22;10891;49.350;19.386;2023-05-24T06:43:24;15.90;99.90
21459;DHT22;10891;49.350;19.386;2023-05-24T06:45:51;15.50;99.90
21459;DHT22;10891;49.350;19.386;2023-05-24T06:48:17;15.30;99.90
21459;DHT22;10891;49.350;19.386;2023-05-24T06:50:46;15.10;99.90
21459;DHT22;10891;49.350;19.386;2023-05-24T06:53:13;15.00;99.90
21459;DHT22;10891;49.350;19.386;2023-05-24T06:55:40;14.80;99.90
21459;DHT22;10891;49.350;19.386;2023-05-24T06:58:07;14.60;99.90
21459;DHT22;10891;49.350;19.386;2023-05-24T07:00:39;14.60;99.90
21459;DHT22;10891;49.350;19.386;2023-05-24T07:03:05;14.70;99.90
21459;DHT22;10891;49.350;19.386;2023-05-24T07:05:32;14.60;99.90
21459;DHT22;10891;49.350;19.386;2023-05-24T07:08:01;14.70;99.90
21459;DHT22;10891;49.350;19.386;2023-05-24T07:10:28;14.80;99.90
21459;DHT22;10891;49.350;19.386;2023-05-24T07:12:55;14.90;99.90
21459;DHT22;10891;49.350;19.386;2023-05-24T07:15:22;15.10;99.90
21459;DHT22;10891;49.350;19.386;2023-05-24T07:17:49;15.00;99.90
21459;DHT22;10891;49.350;19.386;2023-05-24T07:20:16;14.90;99.90
21459;DHT22;10891;49.350;19.386;2023-05-24T07:22:43;14.70;99.90
21459;DHT22;10891;49.350;19.386;2023-05-24T07:25:11;14.50;99.90
21459;DHT22;10891;49.350;19.386;2023-05-24T07:27:39;14.60;99.90
21459;DHT22;10891;49.350;19.386;2023-05-24T07:30:07;14.80;99.90
21459;DHT22;10891;49.350;19.386;2023-05-24T07:32:34;15.10;99.90
21459;DHT22;10891;49.350;19.386;2023-05-24T07:35:01;15.10;99.90
21459;DHT22;10891;49.350;19.386;2023-05-24T07:37:28;15.30;99.90
21459;DHT22;10891;49.350;19.386;2023-05-24T07:39:55;15.50;99.90
21459;DHT22;10891;49.350;19.386;2023-05-24T07:42:23;15.50;99.90
21459;DHT22;10891;49.350;19.386;2023-05-24T07:44:50;15.50;99.90
21459;DHT22;10891;49.350;19.386;2023-05-24T07:47:17;15.50;99.90
21459;DHT22;10891;49.350;19.386;2023-05-24T07:49:44;15.40;99.90
21459;DHT22;10891;49.350;19.386;2023-05-24T07:52:11;15.20;99.90
21459;DHT22;10891;49.350;19.386;2023-05-24T07:54:39;15.50;99.90
21459;DHT22;10891;49.350;19.386;2023-05-24T07:57:06;15.50;99.90
21459;DHT22;10891;49.350;19.386;2023-05-24T07:59:35;15.30;99.90
21459;DHT22;10891;49.350;19.386;2023-05-24T08:02:02;15.30;99.90
21459;DHT22;10891;49.350;19.386;2023-05-24T08:04:30;15.40;99.90
21459;DHT22;10891;49.350;19.386;2023-05-24T08:06:57;15.60;99.90
21459;DHT22;10891;49.350;19.386;2023-05-24T08:09:26;15.40;99.90
21459;DHT22;10891;49.350;19.386;2023-05-24T08:11:54;15.80;99.90
21459;DHT22;10891;49.350;19.386;2023-05-24T08:14:21;15.90;99.90
21459;DHT22;10891;49.350;19.386;2023-05-24T08:16:49;16.00;99.90
21459;DHT22;10891;49.350;19.386;2023-05-24T08:19:16;15.80;99.90
21459;DHT22;10891;49.350;19.386;2023-05-24T08:21:43;15.60;99.90
21459;DHT22;10891;49.350;19.386;2023-05-24T08:24:11;15.40;99.90
21459;DHT22;10891;49.350;19.386;2023-05-24T08:26:38;15.30;99.90
21459;DHT22;10891;49.350;19.386;2023-05-24T08:29:05;15.30;99.90
21459;DHT22;10891;49.350;19.386;2023-05-24T08:31:32;15.20;99.90
21459;DHT22;10891;49.350;19.386;2023-05-24T08:34:00;15.30;99.90
21459;DHT22;10891;49.350;19.386;2023-05-24T08:36:27;15.20;99.90
21459;DHT22;10891;49.350;19.386;2023-05-24T08:38:54;15.20;99.90
21459;DHT22;10891;49.350;19.386;2023-05-24T08:41:21;15.20;99.90
21459;DHT22;10891;49.350;19.386;2023-05-24T08:43:48;15.20;99.90
21459;DHT22;10891;49.350;19.386;2023-05-24T08:46:16;15.20;99.90
21459;DHT22;10891;49.350;19.386;2023-05-24T08:48:45;15.20;99.90
21459;DHT22;10891;49.350;19.386;2023-05-24T08:51:14;15.10;99.90
21459;DHT22;10891;49.350;19.386;2023-05-24T08:53:43;15.20;99.90
21459;DHT22;10891;49.350;19.386;2023-05-24T08:56:15;15.10;99.90
21459;DHT22;10891;49.350;19.386;2023-05-24T08:58:43;15.10;99.90
21459;DHT22;10891;49.350;19.386;2023-05-24T09:01:11;15.00;99.90
21459;DHT22;10891;49.350;19.386;2023-05-24T09:03:39;14.90;99.90
21459;DHT22;10891;49.350;19.386;2023-05-24T09:06:08;14.90;99.90
21459;DHT22;10891;49.350;19.386;2023-05-24T09:08:38;14.70;99.90
21459;DHT22;10891;49.350;19.386;2023-05-24T09:11:07;14.40;99.90
21459;DHT22;10891;49.350;19.386;2023-05-24T09:13:34;14.60;99.90
21459;DHT22;10891;49.350;19.386;2023-05-24T09:16:01;14.50;99.90
21459;DHT22;10891;49.350;19.386;2023-05-24T09:18:28;14.70;99.90
21459;DHT22;10891;49.350;19.386;2023-05-24T09:20:55;14.80;99.90
21459;DHT22;10891;49.350;19.386;2023-05-24T09:23:25;15.30;99.90
21459;DHT22;10891;49.350;19.386;2023-05-24T09:25:54;15.60;99.90
21459;DHT22;10891;49.350;19.386;2023-05-24T09:28:21;15.80;99.90
21459;DHT22;10891;49.350;19.386;2023-05-24T09:30:57;15.50;99.90
21459;DHT22;10891;49.350;19.386;2023-05-24T09:33:28;15.50;99.90
21459;DHT22;10891;49.350;19.386;2023-05-24T09:35:57;15.00;99.90
21459;DHT22;10891;49.350;19.386;2023-05-24T09:38:25;15.10;99.90
21459;DHT22;10891;49.350;19.386;2023-05-24T09:41:01;15.20;99.90
21459;DHT22;10891;49.350;19.386;2023-05-24T09:43:29;15.20;99.90
21459;DHT22;10891;49.350;19.386;2023-05-24T09:45:57;15.20;99.90
21459;DHT22;10891;49.350;19.386;2023-05-24T09:48:25;14.90;99.90
21459;DHT22;10891;49.350;19.386;2023-05-24T09:51:05;14.40;99.90
21459;DHT22;10891;49.350;19.386;2023-05-24T09:53:35;14.50;99.90
21459;DHT22;10891;49.350;19.386;2023-05-24T09:56:05;14.50;99.90
21459;DHT22;10891;49.350;19.386;2023-05-24T09:58:33;14.30;99.90
21459;DHT22;10891;49.350;19.386;2023-05-24T10:01:04;14.50;99.90
21459;DHT22;10891;49.350;19.386;2023-05-24T10:03:32;14.50;99.90
21459;DHT22;10891;49.350;19.386;2023-05-24T10:06:00;14.40;99.90
21459;DHT22;10891;49.350;19.386;2023-05-24T10:08:30;14.20;99.90
21459;DHT22;10891;49.350;19.386;2023-05-24T10:10:57;14.50;99.90
21459;DHT22;10891;49.350;19.386;2023-05-24T10:13:27;14.80;99.90
21459;DHT22;10891;49.350;19.386;2023-05-24T10:15:54;14.70;99.90
21459;DHT22;10891;49.350;19.386;2023-05-24T10:18:21;14.80;99.90
21459;DHT22;10891;49.350;19.386;2023-05-24T10:20:50;14.90;99.90
21459;DHT22;10891;49.350;19.386;2023-05-24T10:23:19;15.10;99.90
21459;DHT22;10891;49.350;19.386;2023-05-24T10:25:51;15.20;99.90
21459;DHT22;10891;49.350;19.386;2023-05-24T10:28:24;15.10;99.90
21459;DHT22;10891;49.350;19.386;2023-05-24T10:31:01;15.20;99.90
21459;DHT22;10891;49.350;19.386;2023-05-24T10:33:30;15.30;99.90
21459;DHT22;10891;49.350;19.386;2023-05-24T10:36:02;15.40;99.90
21459;DHT22;10891;49.350;19.386;2023-05-24T10:38:31;15.60;99.90
21459;DHT22;10891;49.350;19.386;2023-05-24T10:40:59;15.50;99.90
21459;DHT22;10891;49.350;19.386;2023-05-24T10:43:26;15.50;99.90
21459;DHT22;10891;49.350;19.386;2023-05-24T10:45:54;15.40;99.90
21459;DHT22;10891;49.350;19.386;2023-05-24T10:48:36;15.50;99.90
21459;DHT22;10891;49.350;19.386;2023-05-24T10:51:30;15.70;99.90
21459;DHT22;10891;49.350;19.386;2023-05-24T10:54:24;15.60;99.90
21459;DHT22;10891;49.350;19.386;2023-05-24T10:57:00;15.60;99.90
21459;DHT22;10891;49.350;19.386;2023-05-24T10:59:34;16.00;99.90
21459;DHT22;10891;49.350;19.386;2023-05-24T11:02:06;16.20;99.90
21459;DHT22;10891;49.350;19.386;2023-05-24T11:04:39;16.30;99.90
21459;DHT22;10891;49.350;19.386;2023-05-24T11:07:07;16.50;99.90
21459;DHT22;10891;49.350;19.386;2023-05-24T11:09:36;16.50;99.90
21459;DHT22;10891;49.350;19.386;2023-05-24T11:12:06;16.50;99.90
21459;DHT22;10891;49.350;19.386;2023-05-24T11:14:36;16.30;99.90
21459;DHT22;10891;49.350;19.386;2023-05-24T11:17:06;16.10;99.90
21459;DHT22;10891;49.350;19.386;2023-05-24T11:19:35;15.50;99.90
21459;DHT22;10891;49.350;19.386;2023-05-24T11:22:05;14.90;99.90
21459;DHT22;10891;49.350;19.386;2023-05-24T11:24:32;14.60;99.90
21459;DHT22;10891;49.350;19.386;2023-05-24T11:27:00;14.80;99.90
21459;DHT22;10891;49.350;19.386;2023-05-24T11:29:29;14.80;99.90
21459;DHT22;10891;49.350;19.386;2023-05-24T11:31:57;14.70;99.90
21459;DHT22;10891;49.350;19.386;2023-05-24T11:34:30;14.60;99.90
21459;DHT22;10891;49.350;19.386;2023-05-24T11:36:57;15.00;99.90
21459;DHT22;10891;49.350;19.386;2023-05-24T11:39:28;15.20;99.90
21459;DHT22;10891;49.350;19.386;2023-05-24T11:41:55;15.30;99.90
21459;DHT22;10891;49.350;19.386;2023-05-24T11:44:22;15.60;99.90
21459;DHT22;10891;49.350;19.386;2023-05-24T11:46:56;15.30;99.90
21459;DHT22;10891;49.350;19.386;2023-05-24T11:49:24;15.60;99.90
21459;DHT22;10891;49.350;19.386;2023-05-24T11:51:55;16.00;99.90
21459;DHT22;10891;49.350;19.386;2023-05-24T11:54:22;15.80;99.90
21459;DHT22;10891;49.350;19.386;2023-05-24T11:56:51;15.90;99.90
21459;DHT22;10891;49.350;19.386;2023-05-24T11:59:22;16.40;99.90
21459;DHT22;10891;49.350;19.386;2023-05-24T12:01:56;16.90;99.90
21459;DHT22;10891;49.350;19.386;2023-05-24T12:04:25;16.60;99.90
21459;DHT22;10891;49.350;19.386;2023-05-24T12:06:56;16.50;99.90
21459;DHT22;10891;49.350;19.386;2023-05-24T12:09:23;16.50;99.90
21459;DHT22;10891;49.350;19.386;2023-05-24T12:11:51;16.20;99.90
21459;DHT22;10891;49.350;19.386;2023-05-24T12:14:21;16.00;99.90
21459;DHT22;10891;49.350;19.386;2023-05-24T12:16:49;16.10;99.90
21459;DHT22;10891;49.350;19.386;2023-05-24T12:19:16;15.90;99.90
21459;DHT22;10891;49.350;19.386;2023-05-24T12:21:45;16.30;99.90
21459;DHT22;10891;49.350;19.386;2023-05-24T12:24:16;16.40;99.90
21459;DHT22;10891;49.350;19.386;2023-05-24T12:26:46;16.50;99.90
21459;DHT22;10891;49.350;19.386;2023-05-24T12:29:14;16.50;99.90
21459;DHT22;10891;49.350;19.386;2023-05-24T12:31:42;16.50;99.90
21459;DHT22;10891;49.350;19.386;2023-05-24T12:34:11;16.40;99.90
21459;DHT22;10891;49.350;19.386;2023-05-24T12:36:39;16.10;99.90
21459;DHT22;10891;49.350;19.386;2023-05-24T12:39:19;15.90;99.90
21459;DHT22;10891;49.350;19.386;2023-05-24T12:41:49;16.10;99.90
21459;DHT22;10891;49.350;19.386;2023-05-24T12:44:20;15.80;99.90
21459;DHT22;10891;49.350;19.386;2023-05-24T12:46:47;15.50;99.90
21459;DHT22;10891;49.350;19.386;2023-05-24T12:49:16;15.60;99.90
21459;DHT22;10891;49.350;19.386;2023-05-24T12:51:43;15.60;99.90
21459;DHT22;10891;49.350;19.386;2023-05-24T12:54:10;15.50;99.90
21459;DHT22;10891;49.350;19.386;2023-05-24T12:56:38;15.30;99.90
21459;DHT22;10891;49.350;19.386;2023-05-24T12:59:05;15.10;99.90
21459;DHT22;10891;49.350;19.386;2023-05-24T13:01:33;14.90;99.90
21459;DHT22;10891;49.350;19.386;2023-05-24T13:04:01;14.90;99.90
21459;DHT22;10891;49.350;19.386;2023-05-24T13:06:28;14.90;99.90
21459;DHT22;10891;49.350;19.386;2023-05-24T13:08:55;14.90;99.90
21459;DHT22;10891;49.350;19.386;2023-05-24T13:11:23;15.30;99.90
21459;DHT22;10891;49.350;19.386;2023-05-24T13:13:53;15.70;99.90
21459;DHT22;10891;49.350;19.386;2023-05-24T13:16:20;15.90;99.90
21459;DHT22;10891;49.350;19.386;2023-05-24T13:18:48;16.50;99.90
21459;DHT22;10891;49.350;19.386;2023-05-24T13:21:18;16.70;99.90
21459;DHT22;10891;49.350;19.386;2023-05-24T13:23:46;16.80;99.90
21459;DHT22;10891;49.350;19.386;2023-05-24T13:26:14;16.50;99.90
21459;DHT22;10891;49.350;19.386;2023-05-24T13:28:41;16.40;99.90
21459;DHT22;10891;49.350;19.386;2023-05-24T13:31:09;16.40;99.90
21459;DHT22;10891;49.350;19.386;2023-05-24T13:33:39;16.30;99.90
21459;DHT22;10891;49.350;19.386;2023-05-24T13:36:08;16.30;99.90
21459;DHT22;10891;49.350;19.386;2023-05-24T13:38:37;15.90;99.90
21459;DHT22;10891;49.350;19.386;2023-05-24T13:41:04;15.80;99.90
21459;DHT22;10891;49.350;19.386;2023-05-24T13:43:31;15.90;99.90
21459;DHT22;10891;49.350;19.386;2023-05-24T13:45:58;16.00;99.90
21459;DHT22;10891;49.350;19.386;2023-05-24T13:48:27;15.70;99.90
21459;DHT22;10891;49.350;19.386;2023-05-24T13:50:54;15.40;99.90
21459;DHT22;10891;49.350;19.386;2023-05-24T13:53:21;15.10;99.90
21459;DHT22;10891;49.350;19.386;2023-05-24T13:55:48;15.00;99.90
21459;DHT22;10891;49.350;19.386;2023-05-24T13:58:16;15.30;99.90
21459;DHT22;10891;49.350;19.386;2023-05-24T14:00:44;15.30;99.90
21459;DHT22;10891;49.350;19.386;2023-05-24T14:03:11;15.50;99.90
21459;DHT22;10891;49.350;19.386;2023-05-24T14:05:42;15.50;99.90
21459;DHT22;10891;49.350;19.386;2023-05-24T14:08:09;15.80;99.90
21459;DHT22;10891;49.350;19.386;2023-05-24T14:10:36;16.00;99.90
21459;DHT22;10891;49.350;19.386;2023-05-24T14:13:03;16.00;99.90
21459;DHT22;10891;49.350;19.386;2023-05-24T14:15:31;16.00;99.90
21459;DHT22;10891;49.350;19.386;2023-05-24T14:18:00;15.80;99.90
21459;DHT22;10891;49.350;19.386;2023-05-24T14:20:32;16.10;99.90
21459;DHT22;10891;49.350;19.386;2023-05-24T14:23:02;15.90;99.90
21459;DHT22;10891;49.350;19.386;2023-05-24T14:25:30;16.00;99.90
21459;DHT22;10891;49.350;19.386;2023-05-24T14:27:58;16.10;99.90
21459;DHT22;10891;49.350;19.386;2023-05-24T14:30:25;16.00;99.90
21459;DHT22;10891;49.350;19.386;2023-05-24T14:32:53;16.30;99.90
21459;DHT22;10891;49.350;19.386;2023-05-24T14:35:20;16.50;99.90
21459;DHT22;10891;49.350;19.386;2023-05-24T14:37:47;16.20;99.90
21459;DHT22;10891;49.350;19.386;2023-05-24T14:40:15;16.30;99.90
21459;DHT22;10891;49.350;19.386;2023-05-24T14:42:43;16.40;99.90
21459;DHT22;10891;49.350;19.386;2023-05-24T14:45:10;16.40;99.90
21459;DHT22;10891;49.350;19.386;2023-05-24T14:47:37;16.50;99.90
21459;DHT22;10891;49.350;19.386;2023-05-24T14:50:05;16.70;99.90
21459;DHT22;10891;49.350;19.386;2023-05-24T14:52:33;16.30;99.90
21459;DHT22;10891;49.350;19.386;2023-05-24T14:55:00;16.10;99.90
21459;DHT22;10891;49.350;19.386;2023-05-24T14:57:28;16.00;99.90
21459;DHT22;10891;49.350;19.386;2023-05-24T14:59:55;16.20;99.90
21459;DHT22;10891;49.350;19.386;2023-05-24T15:02:22;16.20;99.90
21459;DHT22;10891;49.350;19.386;2023-05-24T15:04:50;16.10;99.90
21459;DHT22;10891;49.350;19.386;2023-05-24T15:07:17;16.00;99.90
21459;DHT22;10891;49.350;19.386;2023-05-24T15:09:44;16.00;99.90
21459;DHT22;10891;49.350;19.386;2023-05-24T15:12:11;16.00;99.90
21459;DHT22;10891;49.350;19.386;2023-05-24T15:14:40;16.10;99.90
21459;DHT22;10891;49.350;19.386;2023-05-24T15:17:08;16.00;99.90
21459;DHT22;10891;49.350;19.386;2023-05-24T15:19:35;15.90;99.90
21459;DHT22;10891;49.350;19.386;2023-05-24T15:22:02;15.80;99.90